Time;durP1;ratioP1;P1;durP2;ratioP2;P2;SDS_P1;SDS_P2;PMS_P1;PMS_P2;Temp;Humidity;BMP_temperature;BMP_pressure;BME280_temperature;BME280_humidity;BME280_pressure;Samples;Min_cycle;Max_cycle;Signal;HPM_P1;HPM_P2
2021/12/14 00:00:00;;;;;;;18.25;10.88;;;;;;;7.78;84.72;102283.69;5071138;28;20048;-70
2021/12/14 00:02:28;;;;;;;21.20;10.88;;;;;;;7.67;84.93;102283.84;5072923;28;20049;-69
2021/12/14 00:04:59;;;;;;;19.67;11.07;;;;;;;7.80;84.75;102287.00;5079786;28;20047;-69
2021/12/14 00:07:28;;;;;;;16.20;10.38;;;;;;;7.42;86.10;102280.75;5093815;28;20063;-69
2021/12/14 00:10:10;;;;;;;15.40;9.23;;;;;;;7.68;85.77;102280.00;5072690;28;20368;-68
2021/12/14 00:12:53;;;;;;;14.95;9.88;;;;;;;7.90;85.03;102270.66;5068814;28;20796;-71
2021/12/14 00:15:20;;;;;;;15.00;9.27;;;;;;;7.61;86.07;102266.47;5063258;28;20056;-69
2021/12/14 00:18:01;;;;;;;14.57;9.82;;;;;;;7.56;86.51;102260.09;5077070;28;20091;-68
2021/12/14 00:20:31;;;;;;;16.23;10.13;;;;;;;7.57;86.74;102262.59;5056516;28;20056;-69
2021/12/14 00:25:35;;;;;;;18.25;11.05;;;;;;;7.56;86.41;102285.63;5075104;28;20530;-68
2021/12/14 00:28:08;;;;;;;16.95;9.15;;;;;;;7.17;86.00;102294.94;5074718;28;20060;-69
2021/12/14 00:30:36;;;;;;;16.25;9.18;;;;;;;7.05;88.09;102279.69;5074796;28;20041;-70
2021/12/14 00:33:07;;;;;;;16.00;9.18;;;;;;;6.78;89.22;102285.88;5058300;28;20500;-70
2021/12/14 00:35:34;;;;;;;16.38;9.43;;;;;;;6.71;89.95;102289.88;5063564;28;20048;-70
2021/12/14 00:38:02;;;;;;;17.13;9.77;;;;;;;6.80;90.15;102264.53;5067923;28;20040;-70
2021/12/14 00:40:37;;;;;;;16.00;9.35;;;;;;;7.12;89.69;102258.41;5077893;28;20048;-68
2021/12/14 00:43:06;;;;;;;16.65;9.15;;;;;;;7.25;88.39;102266.28;5070325;28;20055;-70
2021/12/14 00:45:36;;;;;;;14.55;8.82;;;;;;;7.49;87.31;102263.06;5073500;28;20053;-68
2021/12/14 00:48:05;;;;;;;18.48;8.63;;;;;;;7.28;87.08;102274.00;5057639;28;20060;-69
2021/12/14 00:50:37;;;;;;;12.75;8.00;;;;;;;7.56;87.86;102265.59;5070826;28;20041;-69
2021/12/14 00:53:04;;;;;;;12.40;7.72;;;;;;;7.48;87.45;102269.59;5073992;28;20056;-69
2021/12/14 00:55:39;;;;;;;11.55;7.35;;;;;;;7.53;86.93;102249.66;5050632;28;20057;-69
2021/12/14 00:58:08;;;;;;;11.27;7.38;;;;;;;7.24;87.38;102249.00;5054897;28;20055;-69
2021/12/14 01:00:47;;;;;;;11.98;7.65;;;;;;;7.29;87.76;102249.06;5073760;28;20041;-68
2021/12/14 01:03:15;;;;;;;15.45;9.18;;;;;;;6.90;89.38;102265.78;5049033;28;20052;-70
2021/12/14 01:05:47;;;;;;;15.30;9.52;;;;;;;6.70;90.13;102263.56;5037449;28;20053;-69
2021/12/14 01:08:19;;;;;;;16.27;9.02;;;;;;;6.66;91.77;102267.88;5071385;28;20416;-69
2021/12/14 01:11:12;;;;;;;15.55;9.68;;;;;;;6.66;92.39;102274.19;5054920;28;20060;-69
2021/12/14 01:13:44;;;;;;;16.25;9.90;;;;;;;6.23;94.09;102281.38;5066181;28;20059;-69
2021/12/14 01:16:36;;;;;;;14.95;9.48;;;;;;;6.76;93.98;102270.78;5064864;28;20056;-69
2021/12/14 01:19:24;;;;;;;16.35;9.38;;;;;;;7.18;91.66;102282.09;5066786;28;20055;-67
2021/12/14 01:22:38;;;;;;;15.05;9.60;;;;;;;6.60;92.42;102280.66;5040064;28;20053;-67
2021/12/14 01:25:13;;;;;;;16.52;8.85;;;;;;;6.51;92.08;102289.53;5054043;28;20506;-67
2021/12/14 01:27:55;;;;;;;14.35;8.85;;;;;;;6.54;92.92;102302.72;5053401;28;20049;-67
2021/12/14 01:31:00;;;;;;;13.45;8.07;;;;;;;6.43;92.29;102307.19;5075519;28;20570;-68
2021/12/14 01:33:28;;;;;;;14.23;8.88;;;;;;;6.70;92.06;102302.72;5038035;28;20411;-68
2021/12/14 01:35:58;;;;;;;13.25;7.78;;;;;;;6.72;90.88;102302.47;5055141;28;20049;-68
2021/12/14 01:41:04;;;;;;;12.00;7.38;;;;;;;6.94;90.18;102313.50;5084301;28;20048;-67
2021/12/14 01:43:41;;;;;;;11.90;7.05;;;;;;;7.01;89.59;102322.38;5037122;28;20056;-67
2021/12/14 01:46:20;;;;;;;10.80;6.72;;;;;;;6.48;90.32;102323.72;5059843;28;20525;-67
2021/12/14 01:48:49;;;;;;;11.02;7.00;;;;;;;6.58;91.57;102326.63;5038175;28;20381;-67
2021/12/14 01:51:48;;;;;;;11.32;7.72;;;;;;;6.29;92.01;102333.22;5053227;28;20056;-67
2021/12/14 01:54:22;;;;;;;11.98;7.57;;;;;;;6.18;94.22;102341.47;5054021;28;20060;-68
2021/12/14 01:56:49;;;;;;;13.65;8.52;;;;;;;6.44;94.29;102327.19;5073280;28;20059;-67
2021/12/14 01:59:33;;;;;;;16.25;9.60;;;;;;;6.64;93.41;102338.50;5073349;28;20048;-68
2021/12/14 02:02:21;;;;;;;14.10;9.13;;;;;;;6.24;94.39;102343.25;5066699;28;20097;-67
2021/12/14 02:04:52;;;;;;;14.65;9.68;;;;;;;6.36;94.93;102355.75;5063373;28;20053;-68
2021/12/14 02:07:21;;;;;;;15.35;9.80;;;;;;;6.45;95.36;102362.50;5074180;28;20429;-66
2021/12/14 02:09:52;;;;;;;14.80;9.50;;;;;;;6.61;94.35;102363.59;5068024;28;20424;-67
2021/12/14 02:12:23;;;;;;;14.32;9.48;;;;;;;6.65;94.21;102379.31;5070221;28;20060;-67
2021/12/14 02:14:52;;;;;;;14.70;9.23;;;;;;;6.25;94.73;102394.97;5037311;28;20060;-67
2021/12/14 02:17:23;;;;;;;14.35;9.68;;;;;;;5.88;96.74;102390.94;5060307;28;20061;-67
2021/12/14 02:19:51;;;;;;;15.13;10.00;;;;;;;6.22;96.38;102389.16;5058873;28;20045;-67
2021/12/14 02:22:18;;;;;;;14.85;9.43;;;;;;;6.26;96.62;102382.94;5073837;28;20067;-67
2021/12/14 02:24:49;;;;;;;14.75;10.32;;;;;;;6.34;95.82;102387.19;5058921;28;20067;-68
2021/12/14 02:27:16;;;;;;;;;;;;;;;5.83;97.96;102377.16;5056072;28;20060;-67
2021/12/14 02:29:46;;;;;;;17.05;10.70;;;;;;;6.01;98.39;102379.72;5058071;28;20311;-68
2021/12/14 02:32:21;;;;;;;17.20;10.40;;;;;;;6.06;98.26;102363.41;5061821;28;20049;-67
2021/12/14 02:35:00;;;;;;;17.30;11.40;;;;;;;6.22;97.78;102356.31;5065388;28;20057;-67
2021/12/14 02:37:36;;;;;;;16.25;11.00;;;;;;;6.51;96.28;102338.78;5073160;28;20059;-68
2021/12/14 02:40:15;;;;;;;14.82;10.13;;;;;;;6.73;94.33;102326.03;5085875;28;20052;-68
2021/12/14 02:42:42;;;;;;;15.20;10.25;;;;;;;6.58;93.49;102323.88;5062692;28;20087;-67
2021/12/14 02:45:11;;;;;;;17.90;11.20;;;;;;;6.43;94.88;102328.25;5056998;28;20040;-68
2021/12/14 02:47:38;;;;;;;16.42;10.90;;;;;;;6.33;94.98;102326.16;5067844;28;20044;-68
2021/12/14 02:50:08;;;;;;;15.73;10.63;;;;;;;6.69;94.47;102339.38;5075352;28;20040;-67
2021/12/14 02:52:37;;;;;;;15.73;10.65;;;;;;;6.88;93.27;102330.94;5063995;28;20215;-67
2021/12/14 02:55:17;;;;;;;16.13;9.82;;;;;;;6.83;91.62;102329.75;5073924;28;20056;-69
2021/12/14 02:57:48;;;;;;;16.20;10.55;;;;;;;6.57;93.26;102335.88;5060921;28;20052;-68
2021/12/14 03:00:20;;;;;;;16.10;10.23;;;;;;;6.46;93.33;102334.06;5055837;28;20052;-69
2021/12/14 03:02:47;;;;;;;16.90;11.07;;;;;;;6.50;94.10;102342.63;5082177;28;20052;-70
2021/12/14 03:05:19;;;;;;;15.77;10.48;;;;;;;7.14;92.80;102330.25;5057402;28;20053;-69
2021/12/14 03:07:50;;;;;;;18.05;10.98;;;;;;;6.67;92.10;102319.66;5057404;28;20053;-69
2021/12/14 03:13:04;;;;;;;15.45;10.77;;;;;;;6.96;92.47;102308.63;5078518;28;20056;-69
2021/12/14 03:15:47;;;;;;;16.48;11.23;;;;;;;6.99;91.92;102308.91;5078779;28;20048;-70
2021/12/14 03:18:19;;;;;;;14.93;10.27;;;;;;;7.17;91.03;102305.91;5067973;28;20049;-69
2021/12/14 03:21:14;;;;;;;16.45;11.57;;;;;;;7.42;90.56;102297.22;5071628;28;20049;-69
2021/12/14 03:23:49;;;;;;;17.92;11.73;;;;;;;7.51;89.58;102298.44;5074394;28;20072;-69
2021/12/14 03:26:22;;;;;;;18.23;11.73;;;;;;;7.44;89.30;102306.00;5064846;28;20056;-68
2021/12/14 03:28:52;;;;;;;16.88;11.73;;;;;;;7.15;89.66;102312.75;5069841;28;20049;-69
2021/12/14 03:31:26;;;;;;;16.40;11.77;;;;;;;7.33;89.75;102301.47;5062874;28;20503;-69
2021/12/14 03:34:05;;;;;;;16.15;10.70;;;;;;;7.31;88.62;102298.16;5070336;28;20040;-68
2021/12/14 03:36:59;;;;;;;16.75;11.75;;;;;;;7.30;89.21;102307.47;5074968;28;20075;-69
2021/12/14 03:39:40;;;;;;;16.38;11.38;;;;;;;7.09;89.92;102300.03;5082045;28;20399;-69
2021/12/14 03:42:24;;;;;;;19.17;12.80;;;;;;;7.18;89.73;102296.63;5074443;28;20048;-68
2021/12/14 03:44:55;;;;;;;17.88;12.98;;;;;;;7.06;90.34;102293.13;5060688;28;20127;-70
2021/12/14 03:47:33;;;;;;;18.83;12.90;;;;;;;7.30;89.86;102283.63;5055447;28;20049;-70
2021/12/14 03:50:11;;;;;;;18.45;13.55;;;;;;;7.79;88.21;102284.53;5064843;28;20056;-69
2021/12/14 03:52:40;;;;;;;18.20;12.35;;;;;;;7.46;88.23;102288.22;5050147;28;20037;-68
2021/12/14 03:55:18;;;;;;;17.20;11.95;;;;;;;7.72;87.76;102292.94;5057578;28;20044;-68
2021/12/14 03:57:46;;;;;;;17.17;12.02;;;;;;;7.70;86.87;102294.28;5057639;28;20053;-69
2021/12/14 04:00:23;;;;;;;19.33;13.88;;;;;;;7.78;87.15;102285.59;5064896;28;20423;-69
2021/12/14 04:02:53;;;;;;;19.75;13.55;;;;;;;7.84;87.10;102282.66;5063205;28;20504;-68
2021/12/14 04:05:35;;;;;;;20.77;14.32;;;;;;;7.78;86.66;102275.47;5036417;28;20059;-69
2021/12/14 04:08:05;;;;;;;19.50;13.40;;;;;;;7.91;86.84;102274.22;5070739;28;20059;-69
2021/12/14 04:10:34;;;;;;;19.75;13.73;;;;;;;7.85;86.56;102265.13;5060479;28;20055;-69
2021/12/14 04:13:03;;;;;;;20.17;14.07;;;;;;;7.76;87.49;102279.53;5070560;28;20053;-69
2021/12/14 04:15:31;;;;;;;22.13;15.13;;;;;;;7.79;86.61;102266.13;5050955;28;20055;-69
2021/12/14 04:17:58;;;;;;;20.45;13.95;;;;;;;7.75;87.24;102272.41;5073028;28;20048;-69
2021/12/14 04:20:29;;;;;;;21.25;14.95;;;;;;;7.73;87.17;102272.66;5056296;28;20412;-69
2021/12/14 04:23:00;;;;;;;23.92;15.02;;;;;;;7.78;86.64;102275.47;5053725;28;20077;-68
2021/12/14 04:25:31;;;;;;;21.90;15.23;;;;;;;7.83;86.45;102282.91;5039165;28;20057;-68
2021/12/14 04:27:59;;;;;;;19.38;13.30;;;;;;;7.72;86.41;102286.63;5038135;28;20523;-67
2021/12/14 04:30:27;;;;;;;20.58;14.20;;;;;;;7.28;88.60;102296.75;5055841;28;20061;-67
2021/12/14 04:33:01;;;;;;;21.38;14.45;;;;;;;7.23;89.33;102298.59;5055515;28;20446;-67
2021/12/14 04:35:34;;;;;;;21.88;14.32;;;;;;;7.35;89.38;102302.03;5068078;28;20052;-68
2021/12/14 04:38:09;;;;;;;19.38;13.57;;;;;;;7.52;88.39;102306.41;5052827;28;20049;-67
2021/12/14 04:52:23;;;;;;;29.23;18.52;;;;;;;6.39;95.06;102303.28;5069149;28;20052;-67
2021/12/14 04:54:55;;;;;;;26.63;18.45;;;;;;;6.47;95.12;102304.78;5058105;28;20057;-67
2021/12/14 04:57:26;;;;;;;25.75;17.27;;;;;;;6.80;94.88;102304.78;5034760;28;20053;-67
2021/12/14 04:59:57;;;;;;;25.90;16.90;;;;;;;6.88;93.52;102303.53;5054881;28;20048;-68
2021/12/14 05:02:28;;;;;;;25.90;16.40;;;;;;;7.06;92.49;102298.63;5068694;28;20048;-66
2021/12/14 05:05:21;;;;;;;24.75;15.65;;;;;;;6.86;92.52;102303.78;5054903;28;20040;-68
2021/12/14 05:09:20;;;;;;;21.65;14.23;;;;;;;6.98;92.29;102303.69;5063748;28;20522;-69
2021/12/14 05:10:59;;;;;;;20.27;13.40;;;;;;;7.20;91.74;102305.41;5069908;28;20043;-69
2021/12/14 05:13:40;;;;;;;21.15;13.05;;;;;;;6.94;91.49;102299.81;5057617;28;20079;-69
2021/12/14 05:16:23;;;;;;;19.88;13.88;;;;;;;7.04;91.76;102295.31;5034242;28;20063;-69
2021/12/14 05:18:56;;;;;;;24.95;15.40;;;;;;;7.00;91.28;102304.28;5054411;28;20052;-65
2021/12/14 05:21:32;;;;;;;24.25;16.20;;;;;;;6.78;91.89;102301.50;5067349;28;20053;-66
2021/12/14 05:24:02;;;;;;;25.52;16.35;;;;;;;6.34;93.92;102311.41;5054684;28;20412;-66
2021/12/14 05:26:36;;;;;;;26.88;16.30;;;;;;;6.43;94.98;102309.91;5065426;28;20048;-67
2021/12/14 05:29:04;;;;;;;26.88;17.65;;;;;;;6.66;94.64;102314.41;5053592;28;20393;-68
2021/12/14 05:31:32;;;;;;;22.92;15.45;;;;;;;6.91;93.69;102309.34;5072786;28;20400;-66
2021/12/14 05:33:59;;;;;;;23.13;15.63;;;;;;;7.02;91.92;102307.59;5060476;28;20068;-67
2021/12/14 05:36:31;;;;;;;23.17;16.10;;;;;;;6.56;93.42;102312.34;5057979;28;20052;-67
2021/12/14 05:44:37;;;;;;;26.67;16.13;;;;;;;6.66;93.92;102315.25;5066167;28;20403;-67
2021/12/14 05:47:10;;;;;;;27.67;17.25;;;;;;;6.75;93.03;102313.75;5072279;28;20052;-66
2021/12/14 05:49:49;;;;;;;28.17;16.63;;;;;;;6.16;95.01;102319.84;5060161;28;20052;-68
2021/12/14 05:52:23;;;;;;;28.55;18.00;;;;;;;5.90;98.14;102316.84;5070514;28;20476;-68
2021/12/14 05:54:53;;;;;;;27.90;17.95;;;;;;;6.37;98.02;102319.13;5068236;28;20045;-67
2021/12/14 05:57:25;;;;;;;27.88;17.35;;;;;;;5.99;97.66;102313.50;5069736;28;20056;-67
2021/12/14 05:59:54;;;;;;;30.30;17.38;;;;;;;6.12;99.05;102318.66;5070669;28;20056;-67
2021/12/14 06:02:23;;;;;;;26.15;17.20;;;;;;;6.29;98.20;102322.28;5064819;28;20049;-67
2021/12/14 06:04:55;;;;;;;29.45;17.15;;;;;;;6.27;97.20;102323.59;5057058;28;20045;-69
2021/12/14 06:07:24;;;;;;;25.83;15.95;;;;;;;6.30;97.17;102329.41;5053908;28;20048;-67
2021/12/14 06:09:52;;;;;;;28.40;16.03;;;;;;;6.84;95.85;102331.44;5058945;28;20052;-69
2021/12/14 06:12:36;;;;;;;24.20;14.82;;;;;;;6.28;95.28;102328.81;5065614;28;20045;-69
2021/12/14 06:15:09;;;;;;;27.23;16.40;;;;;;;6.04;96.41;102343.66;5038918;28;20071;-69
2021/12/14 06:17:39;;;;;;;26.05;16.42;;;;;;;6.05;97.57;102358.19;5055371;28;20045;-69
2021/12/14 06:20:23;;;;;;;28.75;16.50;;;;;;;6.12;97.73;102361.63;5058592;28;20044;-68
2021/12/14 06:22:55;;;;;;;24.45;15.23;;;;;;;6.14;96.83;102373.94;5056506;28;20047;-70
2021/12/14 06:25:41;;;;;;;23.75;14.75;;;;;;;5.87;97.80;102372.88;5069539;28;20515;-68
2021/12/14 06:28:09;;;;;;;23.35;14.05;;;;;;;5.68;98.73;102385.00;5066650;28;20057;-69
2021/12/14 06:30:41;;;;;;;21.13;13.45;;;;;;;5.78;99.23;102382.47;5057063;28;20057;-69
2021/12/14 06:33:10;;;;;;;22.52;13.85;;;;;;;6.01;98.68;102370.69;5062883;28;20041;-69
2021/12/14 06:35:46;;;;;;;22.40;14.00;;;;;;;6.10;97.99;102380.97;5010198;28;20116;-68
2021/12/14 06:38:28;;;;;;;22.77;13.60;;;;;;;6.15;97.06;102375.63;5052018;28;20051;-67
2021/12/14 06:41:06;;;;;;;21.13;13.85;;;;;;;6.17;95.68;102376.19;5059865;28;20037;-66
2021/12/14 06:43:41;;;;;;;22.40;13.25;;;;;;;6.25;95.64;102372.25;5059550;28;20049;-66
2021/12/14 06:46:15;;;;;;;20.23;13.88;;;;;;;6.24;95.30;102387.00;5059804;28;20057;-67
2021/12/14 06:48:50;;;;;;;20.75;14.32;;;;;;;6.13;95.15;102390.63;5046082;28;20048;-68
2021/12/14 06:51:21;;;;;;;21.00;14.20;;;;;;;6.14;95.71;102395.84;5041166;28;20060;-67
2021/12/14 06:53:59;;;;;;;21.13;14.93;;;;;;;6.25;95.23;102388.66;5057856;28;20508;-67
2021/12/14 06:56:31;;;;;;;23.38;14.73;;;;;;;6.36;95.29;102393.28;5056853;28;20108;-66
2021/12/14 06:59:20;;;;;;;24.40;17.00;;;;;;;6.66;93.44;102391.91;5068202;28;20049;-72
2021/12/14 07:02:21;;;;;;;23.10;15.90;;;;;;;6.90;91.84;102387.13;5050610;28;20049;-66
2021/12/14 07:05:48;;;;;;;21.20;13.93;;;;;;;6.99;90.89;102391.09;5055069;28;20052;-67
2021/12/14 07:09:04;;;;;;;;;;;;;;;7.07;89.82;102395.34;5050729;28;20057;-68
2021/12/14 07:11:31;;;;;;;22.55;13.77;;;;;;;7.34;89.44;102393.59;5061435;28;19920;-68
2021/12/14 07:13:59;;;;;;;31.67;22.02;;;;;;;7.33;88.49;102391.91;5036007;28;20053;-69
2021/12/14 07:16:31;;;;;;;21.55;14.93;;;;;;;7.33;88.29;102394.66;5064541;28;20044;-69
2021/12/14 07:19:05;;;;;;;20.13;13.65;;;;;;;7.28;88.12;102386.38;5072096;28;20056;-69
2021/12/14 07:21:48;;;;;;;18.98;12.88;;;;;;;7.28;88.67;102389.94;5081622;28;20485;-69
2021/12/14 07:24:21;;;;;;;20.80;13.98;;;;;;;7.26;87.81;102392.09;5055649;28;20508;-69
2021/12/14 07:27:22;;;;;;;21.15;13.32;;;;;;;7.31;87.58;102388.59;5060692;28;20286;-68
2021/12/14 07:29:50;;;;;;;22.60;13.55;;;;;;;7.49;87.80;102385.59;5065090;28;20640;-69
2021/12/14 07:32:37;;;;;;;19.88;12.77;;;;;;;7.36;86.32;102397.72;5080779;28;20056;-68
2021/12/14 07:35:19;;;;;;;23.75;13.75;;;;;;;7.12;88.17;102398.16;5071039;28;20190;-71
2021/12/14 07:37:47;;;;;;;19.33;12.70;;;;;;;7.28;87.85;102400.91;5046391;28;20071;-69
2021/12/14 07:40:17;;;;;;;;;;;;;;;7.33;87.58;102392.75;5069033;28;20104;-69
2021/12/14 07:42:45;;;;;;;22.17;13.10;;;;;;;7.08;87.53;102405.25;5067299;28;19920;-70
2021/12/14 07:45:23;;;;;;;22.98;13.60;;;;;;;7.11;88.26;102405.56;5053829;28;20933;-70
2021/12/14 07:47:52;;;;;;;23.30;14.48;;;;;;;7.19;88.71;102407.03;5067648;28;20408;-70
2021/12/14 07:50:39;;;;;;;27.42;13.48;;;;;;;7.37;87.65;102409.53;5065724;28;20053;-69
2021/12/14 07:53:07;;;;;;;22.70;14.00;;;;;;;7.14;87.87;102409.69;5055284;28;20528;-73
2021/12/14 07:55:43;;;;;;;24.13;14.95;;;;;;;7.13;88.46;102416.28;5036857;28;20980;-69
2021/12/14 07:58:11;;;;;;;24.15;13.75;;;;;;;7.31;87.93;102419.59;5062592;28;20076;-72
2021/12/14 08:00:40;;;;;;;41.03;21.55;;;;;;;7.52;87.31;102420.72;5057801;28;20049;-70
2021/12/14 08:03:09;;;;;;;20.52;13.27;;;;;;;7.45;87.34;102429.13;5058562;28;20104;-70
2021/12/14 08:05:36;;;;;;;35.17;13.73;;;;;;;7.69;86.53;102430.56;5055751;28;20057;-70
2021/12/14 08:08:18;;;;;;;25.48;14.15;;;;;;;7.77;86.51;102434.81;5082158;28;20062;-71
2021/12/14 08:11:08;;;;;;;28.48;17.17;;;;;;;7.98;85.71;102428.50;5079619;28;20399;-70
2021/12/14 08:13:48;;;;;;;29.17;17.63;;;;;;;8.20;84.62;102433.97;5077129;28;20052;-71
2021/12/14 08:16:15;;;;;;;23.23;14.30;;;;;;;7.69;84.81;102448.94;5075819;28;20056;-70
2021/12/14 08:18:44;;;;;;;26.65;14.52;;;;;;;7.35;86.68;102447.31;5064782;28;20055;-71
2021/12/14 08:21:20;;;;;;;23.98;15.02;;;;;;;7.34;87.49;102453.91;5055458;28;20075;-70
2021/12/14 08:24:00;;;;;;;24.48;15.20;;;;;;;7.33;87.43;102461.28;5066258;28;20052;-69
2021/12/14 08:26:32;;;;;;;25.45;15.32;;;;;;;7.21;87.62;102459.69;5095907;28;20423;-70
2021/12/14 08:29:14;;;;;;;27.55;16.15;;;;;;;7.06;88.79;102451.22;5090593;28;20076;-70
2021/12/14 08:31:47;;;;;;;30.65;15.02;;;;;;;7.40;88.40;102456.47;5068124;28;20068;-70
2021/12/14 08:34:24;;;;;;;29.80;13.35;;;;;;;7.71;86.98;102458.59;5056654;28;20484;-68
2021/12/14 08:36:56;;;;;;;26.42;16.40;;;;;;;7.73;85.90;102461.06;5060343;28;20056;-68
2021/12/14 08:39:29;;;;;;;28.38;16.75;;;;;;;7.79;86.02;102451.84;5071342;28;20056;-68
2021/12/14 08:42:24;;;;;;;28.70;14.75;;;;;;;7.83;85.82;102447.50;5060102;28;20053;-67
2021/12/14 08:44:55;;;;;;;26.08;13.27;;;;;;;8.00;84.75;102460.09;5056039;28;20041;-69
2021/12/14 08:47:29;;;;;;;29.40;14.75;;;;;;;7.80;84.47;102453.50;5037302;28;20080;-67
2021/12/14 08:49:58;;;;;;;25.88;15.00;;;;;;;7.91;84.70;102469.03;5056371;28;20052;-67
2021/12/14 08:52:26;;;;;;;28.15;15.82;;;;;;;8.04;84.01;102471.38;5055543;28;20053;-68
2021/12/14 08:54:54;;;;;;;25.33;14.27;;;;;;;7.84;84.34;102473.84;5054795;28;20048;-68
2021/12/14 08:57:24;;;;;;;23.92;13.43;;;;;;;8.08;84.23;102477.19;5056297;28;20051;-68
2021/12/14 08:59:54;;;;;;;30.17;14.57;;;;;;;8.07;83.24;102481.88;5059217;28;20053;-68
2021/12/14 09:02:24;;;;;;;25.45;14.30;;;;;;;7.97;83.26;102479.81;5069491;28;20491;-68
2021/12/14 09:05:06;;;;;;;27.35;14.82;;;;;;;7.75;85.04;102478.94;5076205;28;20048;-68
2021/12/14 09:07:34;;;;;;;24.73;13.90;;;;;;;7.95;84.11;102470.16;5074630;28;20052;-68
2021/12/14 09:10:08;;;;;;;27.95;15.98;;;;;;;7.95;84.15;102470.16;5069370;28;20427;-68
2021/12/14 09:12:41;;;;;;;36.25;14.48;;;;;;;8.10;84.14;102464.88;5069145;28;20110;-68
2021/12/14 09:15:20;;;;;;;35.30;15.27;;;;;;;8.47;84.03;102457.69;5055909;28;20041;-63
2021/12/14 09:17:47;;;;;;;23.27;13.65;;;;;;;8.99;85.46;102445.06;5077813;28;20040;-65
2021/12/14 09:20:37;;;;;;;41.85;15.90;;;;;;;9.01;81.64;102453.84;5070691;28;20055;-64
2021/12/14 09:23:13;;;;;;;30.55;14.82;;;;;;;9.00;79.98;102449.47;5070380;28;20048;-71
2021/12/14 09:25:41;;;;;;;25.63;15.30;;;;;;;8.76;80.46;102461.03;5084309;28;20060;-68
2021/12/14 09:28:09;;;;;;;24.08;13.85;;;;;;;8.95;80.01;102470.56;5060497;28;20053;-69
2021/12/14 09:30:44;;;;;;;28.77;13.68;;;;;;;8.97;79.53;102473.88;5066148;28;20061;-68
2021/12/14 09:33:13;;;;;;;29.45;14.35;;;;;;;8.91;79.36;102467.50;5054958;28;20061;-68
2021/12/14 09:35:41;;;;;;;25.13;14.10;;;;;;;8.88;79.83;102468.03;5060080;28;20051;-67
2021/12/14 09:38:12;;;;;;;25.95;14.77;;;;;;;8.79;79.46;102477.81;5064182;28;20110;-68
2021/12/14 09:40:50;;;;;;;31.73;14.13;;;;;;;8.79;80.27;102471.50;5095032;28;20048;-68
2021/12/14 09:43:19;;;;;;;28.25;15.35;;;;;;;9.17;79.55;102468.56;5083218;28;20075;-68
2021/12/14 09:45:52;;;;;;;30.90;14.45;;;;;;;8.71;79.20;102478.31;5056910;28;20040;-67
2021/12/14 09:48:27;;;;;;;30.17;17.25;;;;;;;8.73;80.10;102481.63;5073696;28;20052;-68
2021/12/14 09:51:07;;;;;;;31.23;19.52;;;;;;;8.84;79.98;102482.53;5064514;28;20055;-67
2021/12/14 09:53:39;;;;;;;29.08;14.90;;;;;;;9.00;79.69;102476.94;5079174;28;20507;-68
2021/12/14 09:56:27;;;;;;;26.77;15.35;;;;;;;9.02;79.36;102485.75;5067640;28;20055;-68
2021/12/14 09:59:22;;;;;;;26.30;15.88;;;;;;;8.81;80.98;102492.16;5050899;28;20052;-68
2021/12/14 10:01:57;;;;;;;25.38;15.18;;;;;;;8.80;80.67;102493.22;5067319;28;20044;-68
2021/12/14 10:04:29;;;;;;;26.55;15.90;;;;;;;8.80;79.97;102493.22;5037259;28;20060;-67
2021/12/14 10:07:03;;;;;;;28.38;15.48;;;;;;;8.88;80.46;102487.28;5038719;28;20064;-67
2021/12/14 10:09:38;;;;;;;32.78;16.25;;;;;;;8.94;81.09;102494.47;5076505;28;20052;-67
2021/12/14 10:12:49;;;;;;;33.60;15.60;;;;;;;8.89;80.20;102502.66;5078078;28;20407;-70
2021/12/14 10:15:15;;;;;;;33.95;17.45;;;;;;;8.60;80.27;102490.25;5073057;28;20048;-67
2021/12/14 10:17:44;;;;;;;26.70;16.23;;;;;;;8.95;80.34;102490.66;5074237;28;20063;-67
2021/12/14 10:20:19;;;;;;;32.55;16.45;;;;;;;9.09;79.12;102483.63;5038351;28;20041;-68
2021/12/14 10:22:51;;;;;;;27.60;16.08;;;;;;;8.87;80.09;102488.34;5054432;28;20051;-68
2021/12/14 10:25:22;;;;;;;26.42;15.07;;;;;;;9.00;79.70;102487.09;5054341;28;20056;-67
2021/12/14 10:27:53;;;;;;;28.08;14.73;;;;;;;8.72;81.38;102488.19;5054899;28;20059;-67
2021/12/14 10:30:37;;;;;;;29.67;15.98;;;;;;;8.59;80.95;102491.34;5055217;28;20049;-67
2021/12/14 10:33:06;;;;;;;30.75;16.38;;;;;;;8.65;81.31;102487.56;5073884;28;20056;-67
2021/12/14 10:35:41;;;;;;;25.88;14.50;;;;;;;8.94;80.92;102488.16;5064474;28;20037;-68
2021/12/14 10:38:20;;;;;;;24.38;14.15;;;;;;;9.31;79.17;102485.47;5053717;28;20060;-68
2021/12/14 10:43:40;;;;;;;27.15;15.30;;;;;;;9.15;79.35;102490.03;5058729;28;20056;-67
2021/12/14 10:46:15;;;;;;;28.27;15.82;;;;;;;9.21;78.94;102485.38;5067507;28;20041;-68
2021/12/14 10:48:45;;;;;;;25.15;15.75;;;;;;;9.41;78.30;102486.41;5064719;28;20052;-69
2021/12/14 10:51:17;;;;;;;27.58;15.45;;;;;;;9.32;77.97;102485.22;5079579;28;20036;-68
2021/12/14 10:53:48;;;;;;;25.10;15.90;;;;;;;9.42;77.80;102485.28;5061309;28;20040;-69
2021/12/14 10:56:48;;;;;;;30.00;15.30;;;;;;;9.76;77.46;102494.09;5059009;28;20055;-69
2021/12/14 10:59:23;;;;;;;26.60;16.05;;;;;;;9.39;78.04;102491.31;5060158;28;20665;-69
2021/12/14 11:01:52;;;;;;;30.95;17.08;;;;;;;9.48;78.11;102495.25;5053028;28;20041;-69
2021/12/14 11:04:38;;;;;;;29.05;16.27;;;;;;;9.55;77.21;102493.13;5065254;28;20045;-69
2021/12/14 11:07:18;;;;;;;27.52;15.93;;;;;;;9.43;77.60;102488.88;5058286;28;20056;-70
2021/12/14 11:09:52;;;;;;;28.02;16.05;;;;;;;9.40;77.52;102483.88;5067927;28;20045;-71
2021/12/14 11:12:26;;;;;;;39.05;22.58;;;;;;;9.72;77.36;102481.94;5086203;28;20048;-69
2021/12/14 11:15:03;;;;;;;31.10;16.50;;;;;;;10.01;76.53;102483.22;5091059;28;20056;-69
2021/12/14 11:20:28;;;;;;;26.88;15.77;;;;;;;10.17;76.13;102474.81;5071925;28;20566;-69
2021/12/14 11:22:59;;;;;;;;;;;;;;;10.01;75.65;102478.56;5057130;28;20053;-69
2021/12/14 11:25:56;;;;;;;29.67;15.73;;;;;;;10.18;75.16;102468.19;5058792;28;19920;-69
2021/12/14 11:28:46;;;;;;;26.45;15.73;;;;;;;10.17;74.76;102472.06;5066965;28;20063;-70
2021/12/14 11:31:27;;;;;;;25.60;15.38;;;;;;;10.47;74.40;102479.63;5058133;28;20048;-70
2021/12/14 11:34:08;;;;;;;27.02;16.42;;;;;;;9.92;75.34;102474.63;5041175;28;20063;-71
2021/12/14 11:36:45;;;;;;;26.40;16.42;;;;;;;10.07;76.04;102473.91;5060058;28;20041;-73
2021/12/14 11:39:25;;;;;;;30.10;16.67;;;;;;;9.75;76.24;102473.16;5079030;28;20506;-70
2021/12/14 11:41:54;;;;;;;26.77;16.33;;;;;;;9.88;75.96;102468.03;5070295;28;20045;-70
2021/12/14 11:44:34;;;;;;;30.05;16.98;;;;;;;9.90;75.57;102465.00;5066609;28;20056;-70
2021/12/14 11:47:07;;;;;;;30.42;18.52;;;;;;;10.22;75.10;102467.69;5057582;28;20041;-70
2021/12/14 11:49:56;;;;;;;29.15;16.42;;;;;;;9.81;75.69;102464.69;5057691;28;20048;-70
2021/12/14 11:52:35;;;;;;;27.48;16.85;;;;;;;9.88;75.89;102462.53;5071288;28;20065;-69
2021/12/14 11:55:17;;;;;;;25.60;16.63;;;;;;;9.97;75.96;102451.84;5070705;28;20447;-70
2021/12/14 11:57:44;;;;;;;36.50;24.15;;;;;;;10.16;75.44;102459.38;5067150;28;20049;-70
2021/12/14 12:00:21;;;;;;;28.25;17.77;;;;;;;10.09;75.57;102446.97;5057530;28;20057;-70
2021/12/14 12:02:48;;;;;;;34.00;17.77;;;;;;;9.88;76.01;102450.69;5060621;28;20055;-70
2021/12/14 12:05:22;;;;;;;31.80;18.23;;;;;;;9.73;76.38;102451.41;5072871;28;20083;-71
2021/12/14 12:10:46;;;;;;;35.20;19.55;;;;;;;9.80;76.62;102442.91;5068995;28;20144;-69
2021/12/14 12:13:15;;;;;;;35.10;19.70;;;;;;;9.96;76.12;102444.66;5056755;28;20166;-70
2021/12/14 12:15:43;;;;;;;32.63;18.45;;;;;;;10.13;75.55;102443.41;5057130;28;20053;-69
2021/12/14 12:18:11;;;;;;;31.00;17.33;;;;;;;10.11;75.35;102439.28;5059385;28;20059;-69
2021/12/14 12:20:45;;;;;;;30.85;18.08;;;;;;;10.05;75.38;102437.53;5061796;28;20052;-71
2021/12/14 12:23:16;;;;;;;33.33;18.83;;;;;;;9.96;75.76;102436.41;5072054;28;20076;-70
2021/12/14 12:25:57;;;;;;;32.92;19.45;;;;;;;9.72;76.74;102441.50;5072097;28;20049;-69
2021/12/14 12:28:27;;;;;;;33.55;18.52;;;;;;;9.91;76.73;102441.88;5063495;28;20060;-71